createdAt,value
2023-06-11T00:01:25.149Z,23.48
2023-06-11T00:03:53.719Z,15.98
2023-06-11T00:06:22.724Z,17.23
2023-06-11T00:08:53.891Z,21.02
2023-06-11T00:11:21.339Z,22.83
2023-06-11T00:13:48.685Z,20.17
2023-06-11T00:16:15.897Z,19.90
2023-06-11T00:18:43.264Z,19.23
2023-06-11T00:21:11.197Z,20.95
2023-06-11T00:23:38.812Z,19.75
2023-06-11T00:26:09.191Z,21.10
2023-06-11T00:28:36.439Z,19.45
2023-06-11T00:31:07.066Z,20.30
2023-06-11T00:33:34.328Z,18.83
2023-06-11T00:36:01.480Z,22.58
2023-06-11T00:38:30.199Z,18.30
2023-06-11T00:40:57.460Z,18.92
2023-06-11T00:43:27.880Z,18.70
2023-06-11T00:45:55.857Z,18.50
2023-06-11T00:48:23.329Z,18.60
2023-06-11T00:50:51.172Z,19.75
2023-06-11T00:53:19.317Z,18.05
2023-06-11T00:55:46.978Z,17.42
2023-06-11T00:58:18.445Z,21.75
2023-06-11T01:03:23.640Z,18.63
2023-06-11T01:06:08.108Z,20.85
2023-06-11T01:08:41.859Z,21.10
2023-06-11T01:11:24.475Z,18.90
2023-06-11T01:13:58.054Z,19.88
2023-06-11T01:16:38.223Z,19.98
2023-06-11T01:19:13.377Z,17.98
2023-06-11T01:21:46.388Z,19.40
2023-06-11T01:24:22.601Z,21.55
2023-06-11T01:27:12.203Z,20.35
2023-06-11T01:29:46.512Z,19.08
2023-06-11T01:32:13.865Z,21.25
2023-06-11T01:34:44.349Z,19.70
2023-06-11T01:37:18.567Z,17.58
2023-06-11T01:39:49.422Z,16.17
2023-06-11T01:42:35.070Z,18.08
2023-06-11T01:45:02.048Z,17.58
2023-06-11T01:47:29.020Z,20.65
2023-06-11T01:49:57.226Z,20.17
2023-06-11T01:52:24.186Z,18.50
2023-06-11T01:54:51.635Z,17.00
2023-06-11T01:57:18.727Z,17.95
2023-06-11T01:59:45.858Z,19.75
2023-06-11T02:02:13.704Z,19.25
2023-06-11T02:04:40.681Z,17.73
2023-06-11T02:07:07.719Z,18.60
2023-06-11T02:09:35.536Z,19.60
2023-06-11T02:12:02.468Z,18.17
2023-06-11T02:14:29.447Z,16.08
2023-06-11T02:16:56.644Z,19.85
2023-06-11T02:19:23.855Z,20.38
2023-06-11T02:21:50.789Z,21.88
2023-06-11T02:24:18.033Z,21.15
2023-06-11T02:26:45.108Z,19.70
2023-06-11T02:29:12.577Z,22.30
2023-06-11T02:31:39.476Z,19.98
2023-06-11T02:34:06.931Z,20.05
2023-06-11T02:36:34.351Z,23.00
2023-06-11T02:39:01.316Z,19.17
2023-06-11T02:41:28.655Z,21.50
2023-06-11T02:43:55.743Z,19.60
2023-06-11T02:46:23.045Z,21.98
2023-06-11T02:48:50.041Z,20.52
2023-06-11T02:51:17.480Z,19.13
2023-06-11T02:53:45.173Z,22.70
2023-06-11T02:56:12.106Z,19.17
2023-06-11T02:58:39.014Z,20.15
2023-06-11T03:01:06.176Z,20.52
2023-06-11T03:03:33.250Z,20.92
2023-06-11T03:06:02.261Z,18.08
2023-06-11T03:08:30.095Z,21.17
2023-06-11T03:10:57.020Z,18.17
2023-06-11T03:13:24.022Z,21.95
2023-06-11T03:15:53.548Z,22.30
2023-06-11T03:18:20.555Z,19.95
2023-06-11T03:20:47.637Z,18.58
2023-06-11T03:23:15.905Z,18.73
2023-06-11T03:25:44.660Z,19.90
2023-06-11T03:28:12.502Z,18.92
2023-06-11T03:30:39.450Z,19.17
2023-06-11T03:33:07.033Z,20.85
2023-06-11T03:35:34.312Z,19.30
2023-06-11T03:38:09.969Z,18.08
2023-06-11T03:40:37.705Z,19.70
2023-06-11T03:43:06.826Z,16.10
2023-06-11T03:45:36.529Z,20.42
2023-06-11T03:48:05.504Z,19.63
2023-06-11T03:50:33.812Z,19.67
2023-06-11T03:53:01.607Z,19.67
2023-06-11T03:55:30.927Z,20.83
2023-06-11T03:57:58.034Z,17.20
2023-06-11T04:00:25.062Z,19.17
2023-06-11T04:02:52.406Z,17.60
2023-06-11T04:05:19.953Z,17.75
2023-06-11T04:07:54.049Z,18.30
2023-06-11T04:10:21.575Z,18.83
2023-06-11T04:12:48.955Z,17.50
2023-06-11T04:15:15.913Z,18.20
2023-06-11T04:17:44.038Z,20.52
2023-06-11T04:20:11.534Z,17.60
2023-06-11T04:22:39.020Z,20.75
2023-06-11T04:25:08.041Z,18.83
2023-06-11T04:27:37.791Z,18.23
2023-06-11T04:30:08.315Z,21.92
2023-06-11T04:32:38.263Z,18.92
2023-06-11T04:35:06.413Z,21.33
2023-06-11T04:37:41.364Z,19.52
2023-06-11T04:40:15.491Z,19.65
2023-06-11T04:42:43.192Z,21.98
2023-06-11T04:45:12.005Z,21.05
2023-06-11T04:47:41.845Z,21.92
2023-06-11T04:50:09.906Z,22.88
2023-06-11T04:52:39.121Z,17.73
2023-06-11T04:55:11.304Z,22.08
2023-06-11T04:57:39.574Z,20.13
2023-06-11T05:00:11.772Z,19.15
2023-06-11T05:02:45.700Z,18.45
2023-06-11T05:05:14.862Z,23.08
2023-06-11T05:07:43.017Z,20.27
2023-06-11T05:10:10.864Z,22.02
2023-06-11T05:12:38.706Z,19.80
2023-06-11T05:15:06.342Z,20.73
2023-06-11T05:17:34.209Z,20.92
2023-06-11T05:20:01.458Z,20.23
2023-06-11T05:22:28.534Z,22.00
2023-06-11T05:24:55.707Z,22.08
2023-06-11T05:27:25.896Z,18.40
2023-06-11T05:29:53.076Z,21.00
2023-06-11T05:32:20.153Z,26.58
2023-06-11T05:34:50.959Z,20.00
2023-06-11T05:37:20.225Z,22.27
2023-06-11T05:39:47.395Z,22.80
2023-06-11T05:42:14.553Z,25.70
2023-06-11T05:44:43.606Z,23.23
2023-06-11T05:47:11.352Z,24.15
2023-06-11T05:49:39.283Z,21.30
2023-06-11T05:52:06.595Z,23.05
2023-06-11T05:54:33.929Z,18.75
2023-06-11T05:57:01.440Z,28.77
2023-06-11T05:59:29.209Z,22.33
2023-06-11T06:01:56.453Z,22.45
2023-06-11T06:04:23.723Z,20.30
2023-06-11T06:06:50.770Z,20.80
2023-06-11T06:09:17.909Z,23.13
2023-06-11T06:11:45.164Z,23.60
2023-06-11T06:14:12.198Z,21.55
2023-06-11T06:16:40.301Z,22.30
2023-06-11T06:19:12.074Z,22.33
2023-06-11T06:21:39.078Z,18.90
2023-06-11T06:24:06.540Z,22.77
2023-06-11T06:26:33.612Z,22.67
2023-06-11T06:29:03.371Z,22.88
2023-06-11T06:31:31.934Z,24.92
2023-06-11T06:33:59.124Z,24.75
2023-06-11T06:36:29.051Z,18.38
2023-06-11T06:38:56.474Z,19.90
2023-06-11T06:41:23.746Z,21.50
2023-06-11T06:43:53.592Z,22.70
2023-06-11T06:46:23.398Z,21.70
2023-06-11T06:48:52.747Z,18.80
2023-06-11T06:51:21.658Z,21.42
2023-06-11T06:53:51.842Z,19.77
2023-06-11T06:56:19.200Z,21.60
2023-06-11T06:58:46.114Z,20.83
2023-06-11T07:01:13.231Z,20.90
2023-06-11T07:03:42.214Z,20.67
2023-06-11T07:06:09.665Z,21.90
2023-06-11T07:08:37.489Z,19.85
2023-06-11T07:11:04.435Z,21.75
2023-06-11T07:13:36.913Z,19.88
2023-06-11T07:16:06.657Z,20.90
2023-06-11T07:18:35.841Z,17.83
2023-06-11T07:21:02.843Z,17.55
2023-06-11T07:23:29.904Z,17.70
2023-06-11T07:25:56.994Z,23.42
2023-06-11T07:28:26.855Z,15.90
2023-06-11T07:30:57.277Z,20.77
2023-06-11T07:33:24.582Z,20.25
2023-06-11T07:35:53.830Z,18.67
2023-06-11T07:38:21.034Z,24.60
2023-06-11T07:40:48.020Z,21.92
2023-06-11T07:43:15.112Z,19.45
2023-06-11T07:45:46.277Z,18.20
2023-06-11T07:48:14.377Z,17.35
2023-06-11T07:50:41.303Z,15.10
2023-06-11T07:53:10.028Z,18.98
2023-06-11T07:55:37.594Z,20.42
2023-06-11T07:58:04.623Z,18.27
2023-06-11T08:00:31.596Z,21.10
2023-06-11T08:02:58.586Z,19.75
2023-06-11T08:05:25.562Z,24.73
2023-06-11T08:07:52.551Z,23.08
2023-06-11T08:10:19.478Z,15.88
2023-06-11T08:12:46.526Z,20.13
2023-06-11T08:15:13.500Z,21.00
2023-06-11T08:17:40.540Z,19.08
2023-06-11T08:20:08.807Z,19.85
2023-06-11T08:22:36.191Z,19.23
2023-06-11T08:25:03.247Z,17.77
2023-06-11T08:27:30.277Z,17.88
2023-06-11T08:29:57.275Z,18.00
2023-06-11T08:32:24.811Z,22.85
2023-06-11T08:34:51.775Z,22.80
2023-06-11T08:37:18.753Z,19.35
2023-06-11T08:39:45.676Z,20.02
2023-06-11T08:42:12.686Z,18.27
2023-06-11T08:44:39.682Z,19.23
2023-06-11T08:47:07.007Z,17.38
2023-06-11T08:49:35.165Z,17.33
2023-06-11T08:52:04.455Z,17.95
2023-06-11T08:54:31.623Z,18.73
2023-06-11T08:56:58.997Z,17.45
2023-06-11T08:59:25.943Z,18.27
2023-06-11T09:01:53.426Z,18.40
2023-06-11T09:04:21.950Z,17.45
2023-06-11T09:06:52.836Z,17.88
2023-06-11T09:09:19.985Z,15.43
2023-06-11T09:11:47.564Z,18.88
2023-06-11T09:14:14.498Z,18.00
2023-06-11T09:16:45.916Z,17.92
2023-06-11T09:19:15.005Z,19.92
2023-06-11T09:21:54.629Z,18.90
2023-06-11T09:24:22.336Z,20.95
2023-06-11T09:26:56.641Z,19.25
2023-06-11T09:29:27.879Z,17.73
2023-06-11T09:32:16.261Z,21.88
2023-06-11T09:34:57.172Z,15.23
2023-06-11T09:37:24.557Z,18.73
2023-06-11T09:39:51.560Z,18.85
2023-06-11T09:42:28.411Z,18.65
2023-06-11T09:45:02.029Z,17.58
2023-06-11T09:47:29.765Z,16.40
2023-06-11T09:49:56.720Z,16.83
2023-06-11T09:52:24.290Z,16.70
2023-06-11T09:54:51.870Z,18.27
2023-06-11T09:57:18.946Z,16.77
2023-06-11T09:59:47.032Z,16.45
2023-06-11T10:02:13.938Z,15.98
2023-06-11T10:04:40.974Z,20.40
2023-06-11T10:07:08.404Z,15.93
2023-06-11T10:09:35.373Z,18.17
2023-06-11T10:12:05.529Z,16.95
2023-06-11T10:14:32.565Z,18.15
2023-06-11T10:17:03.270Z,14.98
2023-06-11T10:19:39.331Z,17.88
2023-06-11T10:22:07.465Z,15.15
2023-06-11T10:24:34.583Z,17.55
2023-06-11T10:27:13.238Z,16.75
2023-06-11T10:29:49.975Z,15.07
2023-06-11T10:32:21.588Z,15.93
2023-06-11T10:37:16.430Z,14.82
2023-06-11T10:39:52.746Z,17.48
2023-06-11T10:42:29.628Z,16.17
2023-06-11T10:44:59.816Z,16.40
2023-06-11T10:47:28.329Z,14.73
2023-06-11T10:50:09.401Z,14.05
2023-06-11T10:52:51.785Z,14.98
2023-06-11T10:55:19.440Z,18.38
2023-06-11T10:57:46.650Z,16.35
2023-06-11T11:00:14.894Z,14.38
2023-06-11T11:02:42.150Z,18.25
2023-06-11T11:05:11.407Z,16.25
2023-06-11T11:07:38.872Z,18.25
2023-06-11T11:10:06.822Z,16.08
2023-06-11T11:12:39.020Z,19.75
2023-06-11T11:15:06.734Z,17.38
2023-06-11T11:17:34.691Z,15.45
2023-06-11T11:20:01.728Z,15.50
2023-06-11T11:22:30.531Z,15.88
2023-06-11T11:25:01.647Z,15.73
2023-06-11T11:27:28.689Z,16.15
2023-06-11T11:30:00.670Z,15.82
2023-06-11T11:32:33.487Z,15.82
2023-06-11T11:35:01.545Z,15.40
2023-06-11T11:37:31.825Z,17.10
2023-06-11T11:40:08.412Z,15.27
2023-06-11T11:42:49.997Z,17.55
2023-06-11T11:45:17.868Z,13.55
2023-06-11T11:47:54.194Z,15.38
2023-06-11T11:50:28.224Z,15.65
2023-06-11T11:53:14.418Z,15.32
2023-06-11T11:55:55.976Z,15.50
2023-06-11T11:58:29.323Z,15.43
2023-06-11T12:00:57.811Z,18.75
2023-06-11T12:03:25.321Z,18.40
2023-06-11T12:06:03.233Z,15.80
2023-06-11T12:08:31.149Z,15.52
2023-06-11T12:10:58.528Z,13.75
2023-06-11T12:13:25.740Z,16.58
2023-06-11T12:15:52.779Z,13.85
2023-06-11T12:18:19.832Z,13.65
2023-06-11T12:20:50.756Z,14.65
2023-06-11T12:23:17.721Z,12.35
2023-06-11T12:25:44.655Z,13.18
2023-06-11T12:28:11.623Z,12.07
2023-06-11T12:30:38.545Z,13.50
2023-06-11T12:33:05.586Z,13.55
2023-06-11T12:35:32.885Z,11.93
2023-06-11T12:38:00.622Z,11.10
2023-06-11T12:40:29.336Z,11.55
2023-06-11T12:43:00.405Z,11.55
2023-06-11T12:45:28.169Z,11.95
2023-06-11T12:47:56.442Z,12.90
2023-06-11T12:50:27.031Z,12.00
2023-06-11T12:52:55.042Z,13.38
2023-06-11T12:55:22.067Z,14.10
2023-06-11T12:57:49.761Z,12.55
2023-06-11T13:00:17.178Z,13.15
2023-06-11T13:02:45.351Z,15.75
2023-06-11T13:05:12.501Z,13.25
2023-06-11T13:07:39.536Z,14.93
2023-06-11T13:10:06.889Z,16.00
2023-06-11T13:12:34.035Z,15.40
2023-06-11T13:15:01.158Z,14.57
2023-06-11T13:17:31.443Z,17.02
2023-06-11T13:20:01.197Z,14.90
2023-06-11T13:22:28.410Z,15.02
2023-06-11T13:24:55.710Z,14.70
2023-06-11T13:27:22.611Z,14.20
2023-06-11T13:29:49.554Z,14.60
2023-06-11T13:32:19.900Z,16.00
2023-06-11T13:34:47.232Z,17.77
2023-06-11T13:37:16.688Z,13.73
2023-06-11T13:39:43.726Z,13.60
2023-06-11T13:42:11.638Z,14.90
2023-06-11T13:44:38.670Z,15.82
2023-06-11T13:47:05.881Z,14.65
2023-06-11T13:49:33.132Z,16.95
2023-06-11T13:52:00.127Z,15.50
2023-06-11T13:54:29.389Z,12.88
2023-06-11T13:56:56.557Z,12.55
2023-06-11T13:59:23.528Z,13.38
2023-06-11T14:01:55.071Z,12.07
2023-06-11T14:04:23.249Z,10.82
2023-06-11T14:06:50.512Z,11.93
2023-06-11T14:09:17.450Z,12.75
2023-06-11T14:11:44.450Z,13.02
2023-06-11T14:14:12.786Z,13.38
2023-06-11T14:16:40.560Z,14.25
2023-06-11T14:19:09.126Z,13.48
2023-06-11T14:21:36.368Z,25.15
2023-06-11T14:24:03.784Z,16.38
2023-06-11T14:26:30.867Z,15.45
2023-06-11T14:28:57.988Z,16.48
2023-06-11T14:31:25.119Z,15.38
2023-06-11T14:33:52.147Z,15.45
2023-06-11T14:36:18.972Z,14.00
2023-06-11T14:38:46.045Z,13.48
2023-06-11T14:41:13.601Z,13.82
2023-06-11T14:43:40.586Z,14.82
2023-06-11T14:46:07.568Z,13.25
2023-06-11T14:48:37.647Z,12.73
2023-06-11T14:51:07.531Z,14.27
2023-06-11T14:53:34.436Z,12.55
2023-06-11T14:56:01.408Z,13.35
2023-06-11T14:58:28.382Z,13.45
2023-06-11T15:00:55.412Z,13.05
2023-06-11T15:03:22.497Z,12.73
2023-06-11T15:05:49.546Z,11.88
2023-06-11T15:08:16.596Z,12.15
2023-06-11T15:10:43.536Z,12.90
2023-06-11T15:13:10.644Z,13.43
2023-06-11T15:15:37.527Z,13.75
2023-06-11T15:18:06.384Z,13.23
2023-06-11T15:20:33.335Z,13.98
2023-06-11T15:23:00.287Z,13.40
2023-06-11T15:25:27.191Z,12.45
2023-06-11T15:27:54.406Z,12.95
2023-06-11T15:30:21.298Z,14.23
2023-06-11T15:32:48.363Z,12.63
2023-06-11T15:35:15.852Z,15.63
2023-06-11T15:37:42.901Z,14.52
2023-06-11T15:40:10.330Z,14.18
2023-06-11T15:42:37.562Z,12.45
2023-06-11T15:45:07.242Z,17.17
2023-06-11T15:47:35.241Z,13.80
2023-06-11T15:50:02.426Z,12.98
2023-06-11T15:52:29.390Z,12.00
2023-06-11T15:54:56.442Z,16.25
2023-06-11T15:57:23.940Z,14.70
2023-06-11T15:59:51.314Z,18.52
2023-06-11T16:02:18.365Z,14.68
2023-06-11T16:04:48.561Z,14.45
2023-06-11T16:07:16.075Z,12.10
2023-06-11T16:09:42.990Z,14.40
2023-06-11T16:12:10.153Z,13.32
2023-06-11T16:14:37.159Z,14.30
2023-06-11T16:17:04.329Z,14.30
2023-06-11T16:19:31.332Z,17.95
2023-06-11T16:21:58.383Z,15.25
2023-06-11T16:24:25.305Z,15.27
2023-06-11T16:26:52.225Z,14.80
2023-06-11T16:29:19.147Z,16.42
2023-06-11T16:31:46.198Z,15.73
2023-06-11T16:34:13.176Z,16.58
2023-06-11T16:36:40.305Z,17.80
2023-06-11T16:39:25.849Z,17.90
2023-06-11T16:41:54.230Z,17.27
2023-06-11T16:44:21.165Z,16.40
2023-06-11T16:46:48.235Z,17.25
2023-06-11T16:49:16.041Z,19.92
2023-06-11T16:51:43.059Z,15.35
2023-06-11T16:54:10.030Z,16.75
2023-06-11T16:56:36.956Z,16.27
2023-06-11T16:59:03.901Z,18.17
2023-06-11T17:01:31.167Z,17.13
2023-06-11T17:03:58.388Z,19.58
2023-06-11T17:06:27.293Z,16.58
2023-06-11T17:08:55.028Z,16.15
2023-06-11T17:11:22.008Z,17.70
2023-06-11T17:13:48.945Z,17.35
2023-06-11T17:16:16.133Z,19.33
2023-06-11T17:18:43.850Z,18.10
2023-06-11T17:21:10.819Z,18.30
2023-06-11T17:23:37.874Z,17.52
2023-06-11T17:26:04.811Z,16.95
2023-06-11T17:28:31.816Z,18.13
2023-06-11T17:30:58.828Z,19.00
2023-06-11T17:33:26.004Z,20.10
2023-06-11T17:35:53.340Z,17.13
2023-06-11T17:38:21.026Z,18.23
2023-06-11T17:40:48.016Z,16.95
2023-06-11T17:43:15.041Z,15.30
2023-06-11T17:45:41.961Z,17.40
2023-06-11T17:48:08.955Z,18.73
2023-06-11T17:50:35.982Z,16.15
2023-06-11T17:53:02.887Z,17.85
2023-06-11T17:55:30.779Z,17.98
2023-06-11T17:57:57.960Z,18.10
2023-06-11T18:00:24.994Z,18.95
2023-06-11T18:02:52.262Z,17.60
2023-06-11T18:05:19.351Z,19.75
2023-06-11T18:07:47.205Z,17.35
2023-06-11T18:10:15.365Z,17.90
2023-06-11T18:12:42.800Z,19.73
2023-06-11T18:15:26.783Z,16.98
2023-06-11T18:17:57.128Z,19.25
2023-06-11T18:20:24.207Z,19.45
2023-06-11T18:22:51.328Z,19.88
2023-06-11T18:25:18.398Z,20.48
2023-06-11T18:27:45.549Z,18.02
2023-06-11T18:30:12.734Z,16.08
2023-06-11T18:32:39.919Z,20.77
2023-06-11T18:35:07.228Z,17.30
2023-06-11T18:37:34.189Z,16.40
2023-06-11T18:40:01.197Z,18.00
2023-06-11T18:42:28.298Z,19.60
2023-06-11T18:44:55.328Z,19.50
2023-06-11T18:47:22.384Z,19.25
2023-06-11T18:49:49.365Z,18.90
2023-06-11T18:52:16.309Z,19.38
2023-06-11T18:54:43.199Z,19.45
2023-06-11T18:57:10.319Z,18.67
2023-06-11T18:59:37.401Z,20.20
2023-06-11T19:02:06.472Z,20.58
2023-06-11T19:04:33.436Z,19.33
2023-06-11T19:07:00.539Z,18.00
2023-06-11T19:09:27.497Z,19.10
2023-06-11T19:11:54.383Z,18.10
2023-06-11T19:14:21.536Z,19.35
2023-06-11T19:16:51.503Z,21.08
2023-06-11T19:19:18.758Z,45.05
2023-06-11T19:21:46.996Z,27.35
2023-06-11T19:24:19.302Z,23.80
2023-06-11T19:26:46.281Z,22.42
2023-06-11T19:29:13.260Z,19.05
2023-06-11T19:31:40.285Z,19.20
2023-06-11T19:34:07.963Z,18.33
2023-06-11T19:36:34.861Z,20.50
2023-06-11T19:39:01.849Z,18.52
2023-06-11T19:41:30.440Z,18.25
2023-06-11T19:43:58.056Z,20.02
2023-06-11T19:46:27.925Z,17.80
2023-06-11T19:48:56.476Z,17.90
2023-06-11T19:51:23.489Z,18.85
2023-06-11T19:53:52.613Z,18.65
2023-06-11T19:56:20.525Z,18.83
2023-06-11T19:58:47.860Z,17.42
2023-06-11T20:01:17.967Z,19.50
2023-06-11T20:03:45.299Z,18.38
2023-06-11T20:06:15.705Z,19.30
2023-06-11T20:08:42.827Z,17.73
2023-06-11T20:11:11.647Z,18.70
2023-06-11T20:13:47.643Z,18.65
2023-06-11T20:16:14.795Z,17.10
2023-06-11T20:18:42.073Z,18.83
2023-06-11T20:21:09.263Z,19.30
2023-06-11T20:23:36.550Z,18.92
2023-06-11T20:26:04.003Z,19.38
2023-06-11T20:28:33.143Z,19.13
2023-06-11T20:31:04.514Z,19.38
2023-06-11T20:33:35.998Z,18.55
2023-06-11T20:36:03.036Z,18.02
2023-06-11T20:38:30.013Z,18.92
2023-06-11T20:40:59.291Z,22.05
2023-06-11T20:43:26.276Z,21.15
2023-06-11T20:48:23.585Z,20.13
2023-06-11T20:50:50.648Z,19.63
2023-06-11T20:53:32.354Z,19.20
2023-06-11T20:56:00.844Z,19.23
2023-06-11T20:58:27.828Z,18.20
2023-06-11T21:00:57.185Z,19.10
2023-06-11T21:03:27.446Z,21.90
2023-06-11T21:05:55.717Z,19.23
2023-06-11T21:08:22.713Z,21.48
2023-06-11T21:10:49.610Z,20.08
2023-06-11T21:13:16.627Z,18.58
2023-06-11T21:15:43.661Z,21.13
2023-06-11T21:18:10.957Z,20.10
2023-06-11T21:20:39.448Z,22.38
2023-06-11T21:23:06.928Z,21.77
2023-06-11T21:25:33.974Z,21.73
2023-06-11T21:28:00.957Z,21.98
2023-06-11T21:30:27.937Z,21.52
2023-06-11T21:32:54.928Z,20.23
2023-06-11T21:35:22.080Z,21.98
2023-06-11T21:37:49.101Z,21.55
2023-06-11T21:40:16.161Z,24.55
2023-06-11T21:42:45.688Z,22.73
2023-06-11T21:45:12.674Z,20.52
2023-06-11T21:47:39.613Z,21.73
2023-06-11T21:50:07.117Z,21.05
2023-06-11T21:52:38.818Z,22.42
2023-06-11T21:55:11.174Z,21.33
2023-06-11T21:57:38.145Z,22.38
2023-06-11T22:00:13.073Z,21.95
2023-06-11T22:02:41.740Z,22.63
2023-06-11T22:05:09.307Z,22.92
2023-06-11T22:07:37.225Z,20.80
2023-06-11T22:10:05.231Z,23.35
2023-06-11T22:12:41.852Z,22.27
2023-06-11T22:15:09.406Z,20.13
2023-06-11T22:17:38.113Z,20.15
2023-06-11T22:20:09.500Z,22.42
2023-06-11T22:22:41.419Z,21.60
2023-06-11T22:25:12.002Z,22.33
2023-06-11T22:27:39.928Z,23.05
2023-06-11T22:30:08.049Z,21.48
2023-06-11T22:32:35.219Z,23.88
2023-06-11T22:35:02.188Z,22.08
2023-06-11T22:37:29.150Z,23.88
2023-06-11T22:39:56.733Z,23.77
2023-06-11T22:42:24.005Z,22.10
2023-06-11T22:44:50.952Z,23.02
2023-06-11T22:47:17.932Z,25.58
2023-06-11T22:49:44.832Z,22.67
2023-06-11T22:52:12.724Z,23.42
2023-06-11T22:54:39.714Z,22.77
2023-06-11T22:57:09.751Z,22.95
2023-06-11T22:59:36.734Z,22.88
2023-06-11T23:02:04.018Z,26.00
2023-06-11T23:04:34.329Z,23.95
2023-06-11T23:07:05.324Z,22.30
2023-06-11T23:09:32.290Z,24.30
2023-06-11T23:11:59.262Z,22.42
2023-06-11T23:14:26.314Z,22.38
2023-06-11T23:16:53.575Z,23.02
2023-06-11T23:19:26.529Z,25.40
2023-06-11T23:21:57.683Z,24.10
2023-06-11T23:24:27.736Z,22.98
2023-06-11T23:26:57.679Z,24.13
2023-06-11T23:29:25.027Z,22.65
2023-06-11T23:31:52.512Z,24.90
2023-06-11T23:34:19.556Z,23.50
2023-06-11T23:36:48.108Z,22.92
2023-06-11T23:39:16.020Z,26.67
2023-06-11T23:41:43.326Z,24.52
2023-06-11T23:44:10.295Z,27.73
2023-06-11T23:46:37.509Z,25.73
2023-06-11T23:49:04.592Z,25.52
2023-06-11T23:51:33.377Z,25.05
2023-06-11T23:54:00.848Z,25.58
2023-06-11T23:56:27.868Z,27.30
2023-06-11T23:58:56.973Z,24.45
